sensor_id;sensor_type;location;lat;lon;timestamp;temperature;humidity
41944;DHT22;27636;52.610;13.244;2023-08-08T00:03:33;14.10;99.90
41944;DHT22;27636;52.610;13.244;2023-08-08T00:08:37;13.90;99.90
41944;DHT22;27636;52.610;13.244;2023-08-08T00:13:42;13.90;99.90
41944;DHT22;27636;52.610;13.244;2023-08-08T00:18:46;13.80;99.90
41944;DHT22;27636;52.610;13.244;2023-08-08T00:23:49;13.80;99.90
41944;DHT22;27636;52.610;13.244;2023-08-08T00:28:54;13.70;99.90
41944;DHT22;27636;52.610;13.244;2023-08-08T00:33:58;13.60;99.90
41944;DHT22;27636;52.610;13.244;2023-08-08T00:39:02;13.60;99.90
41944;DHT22;27636;52.610;13.244;2023-08-08T00:44:07;13.60;99.90
41944;DHT22;27636;52.610;13.244;2023-08-08T00:49:10;13.50;99.90
41944;DHT22;27636;52.610;13.244;2023-08-08T00:54:14;13.50;99.90
41944;DHT22;27636;52.610;13.244;2023-08-08T00:59:23;13.50;99.90
41944;DHT22;27636;52.610;13.244;2023-08-08T01:04:27;13.40;99.90
41944;DHT22;27636;52.610;13.244;2023-08-08T01:16:39;13.20;99.90
41944;DHT22;27636;52.610;13.244;2023-08-08T01:21:45;13.30;99.90
41944;DHT22;27636;52.610;13.244;2023-08-08T01:26:53;13.30;99.90
41944;DHT22;27636;52.610;13.244;2023-08-08T01:31:57;13.40;99.90
41944;DHT22;27636;52.610;13.244;2023-08-08T01:37:06;13.40;99.90
41944;DHT22;27636;52.610;13.244;2023-08-08T01:42:14;13.50;99.90
41944;DHT22;27636;52.610;13.244;2023-08-08T01:47:18;13.70;99.90
41944;DHT22;27636;52.610;13.244;2023-08-08T01:52:22;13.70;99.90
41944;DHT22;27636;52.610;13.244;2023-08-08T01:57:27;13.70;99.90
41944;DHT22;27636;52.610;13.244;2023-08-08T02:02:31;13.70;99.90
41944;DHT22;27636;52.610;13.244;2023-08-08T02:07:35;13.60;99.90
41944;DHT22;27636;52.610;13.244;2023-08-08T02:12:40;13.70;99.90
41944;DHT22;27636;52.610;13.244;2023-08-08T02:17:45;13.80;99.90
41944;DHT22;27636;52.610;13.244;2023-08-08T02:22:48;13.80;99.90
41944;DHT22;27636;52.610;13.244;2023-08-08T02:27:53;13.80;99.90
41944;DHT22;27636;52.610;13.244;2023-08-08T02:32:57;13.70;99.90
41944;DHT22;27636;52.610;13.244;2023-08-08T02:38:02;13.50;99.90
41944;DHT22;27636;52.610;13.244;2023-08-08T02:43:07;13.20;99.90
41944;DHT22;27636;52.610;13.244;2023-08-08T02:48:13;13.00;99.90
41944;DHT22;27636;52.610;13.244;2023-08-08T02:53:17;13.00;99.90
41944;DHT22;27636;52.610;13.244;2023-08-08T02:58:25;13.00;99.90
41944;DHT22;27636;52.610;13.244;2023-08-08T03:03:29;12.90;99.90
41944;DHT22;27636;52.610;13.244;2023-08-08T03:08:33;12.80;99.90
41944;DHT22;27636;52.610;13.244;2023-08-08T03:13:38;12.70;99.90
41944;DHT22;27636;52.610;13.244;2023-08-08T03:18:42;12.70;99.90
41944;DHT22;27636;52.610;13.244;2023-08-08T03:23:45;12.60;99.90
41944;DHT22;27636;52.610;13.244;2023-08-08T03:28:51;12.70;99.90
41944;DHT22;27636;52.610;13.244;2023-08-08T03:34:02;12.80;99.90
41944;DHT22;27636;52.610;13.244;2023-08-08T03:39:08;12.90;99.90
41944;DHT22;27636;52.610;13.244;2023-08-08T03:44:12;13.00;99.90
41944;DHT22;27636;52.610;13.244;2023-08-08T03:49:17;13.00;99.90
41944;DHT22;27636;52.610;13.244;2023-08-08T03:54:21;13.10;99.90
41944;DHT22;27636;52.610;13.244;2023-08-08T03:59:26;13.20;99.90
41944;DHT22;27636;52.610;13.244;2023-08-08T04:04:30;13.30;99.90
41944;DHT22;27636;52.610;13.244;2023-08-08T04:09:33;13.30;99.90
41944;DHT22;27636;52.610;13.244;2023-08-08T04:14:38;13.30;99.90
41944;DHT22;27636;52.610;13.244;2023-08-08T04:19:42;13.40;99.90
41944;DHT22;27636;52.610;13.244;2023-08-08T04:24:45;13.20;99.90
41944;DHT22;27636;52.610;13.244;2023-08-08T04:29:50;13.30;99.90
41944;DHT22;27636;52.610;13.244;2023-08-08T04:34:54;13.40;99.90
41944;DHT22;27636;52.610;13.244;2023-08-08T04:39:57;13.50;99.90
41944;DHT22;27636;52.610;13.244;2023-08-08T04:45:03;13.80;99.90
41944;DHT22;27636;52.610;13.244;2023-08-08T04:50:07;14.00;99.90
41944;DHT22;27636;52.610;13.244;2023-08-08T04:55:11;14.10;99.90
41944;DHT22;27636;52.610;13.244;2023-08-08T05:00:16;14.10;99.90
41944;DHT22;27636;52.610;13.244;2023-08-08T05:05:20;14.20;99.90
41944;DHT22;27636;52.610;13.244;2023-08-08T05:10:25;14.30;99.90
41944;DHT22;27636;52.610;13.244;2023-08-08T05:15:30;14.10;99.90
41944;DHT22;27636;52.610;13.244;2023-08-08T05:20:33;14.70;99.90
41944;DHT22;27636;52.610;13.244;2023-08-08T05:25:37;15.40;99.90
41944;DHT22;27636;52.610;13.244;2023-08-08T05:30:41;15.20;99.90
41944;DHT22;27636;52.610;13.244;2023-08-08T05:35:45;15.10;99.90
41944;DHT22;27636;52.610;13.244;2023-08-08T05:40:48;16.60;99.90
41944;DHT22;27636;52.610;13.244;2023-08-08T05:45:53;17.70;99.90
41944;DHT22;27636;52.610;13.244;2023-08-08T05:50:57;18.20;99.90
41944;DHT22;27636;52.610;13.244;2023-08-08T05:56:03;16.90;99.90
41944;DHT22;27636;52.610;13.244;2023-08-08T06:01:08;16.00;99.90
41944;DHT22;27636;52.610;13.244;2023-08-08T06:06:14;15.90;99.90
41944;DHT22;27636;52.610;13.244;2023-08-08T06:11:21;15.80;99.90
41944;DHT22;27636;52.610;13.244;2023-08-08T06:16:27;16.90;99.90
41944;DHT22;27636;52.610;13.244;2023-08-08T06:21:31;16.90;99.90
41944;DHT22;27636;52.610;13.244;2023-08-08T06:26:35;16.60;99.90
41944;DHT22;27636;52.610;13.244;2023-08-08T06:31:41;17.00;99.90
41944;DHT22;27636;52.610;13.244;2023-08-08T06:36:45;17.50;99.90
41944;DHT22;27636;52.610;13.244;2023-08-08T06:41:51;17.20;99.90
41944;DHT22;27636;52.610;13.244;2023-08-08T06:47:08;16.70;99.90
41944;DHT22;27636;52.610;13.244;2023-08-08T06:52:12;16.30;99.90
41944;DHT22;27636;52.610;13.244;2023-08-08T06:57:16;16.50;99.90
41944;DHT22;27636;52.610;13.244;2023-08-08T07:02:22;16.90;99.90
41944;DHT22;27636;52.610;13.244;2023-08-08T07:07:25;17.80;99.90
41944;DHT22;27636;52.610;13.244;2023-08-08T07:12:29;17.60;99.90
41944;DHT22;27636;52.610;13.244;2023-08-08T07:17:35;18.10;99.90
41944;DHT22;27636;52.610;13.244;2023-08-08T07:22:39;18.60;99.90
41944;DHT22;27636;52.610;13.244;2023-08-08T07:27:42;18.70;99.90
41944;DHT22;27636;52.610;13.244;2023-08-08T07:32:47;19.60;99.90
41944;DHT22;27636;52.610;13.244;2023-08-08T07:37:52;20.00;99.90
41944;DHT22;27636;52.610;13.244;2023-08-08T07:42:55;19.60;99.90
41944;DHT22;27636;52.610;13.244;2023-08-08T07:48:00;20.40;99.30
41944;DHT22;27636;52.610;13.244;2023-08-08T07:53:04;20.40;99.00
41944;DHT22;27636;52.610;13.244;2023-08-08T07:58:07;19.60;99.40
41944;DHT22;27636;52.610;13.244;2023-08-08T08:03:13;19.20;99.90
41944;DHT22;27636;52.610;13.244;2023-08-08T08:08:17;21.70;98.50
41944;DHT22;27636;52.610;13.244;2023-08-08T08:13:20;22.60;94.70
41944;DHT22;27636;52.610;13.244;2023-08-08T08:18:25;21.80;92.30
41944;DHT22;27636;52.610;13.244;2023-08-08T08:23:29;19.80;96.20
41944;DHT22;27636;52.610;13.244;2023-08-08T08:28:35;19.40;96.80
41944;DHT22;27636;52.610;13.244;2023-08-08T08:33:40;19.10;98.40
41944;DHT22;27636;52.610;13.244;2023-08-08T08:38:44;19.50;97.80
41944;DHT22;27636;52.610;13.244;2023-08-08T08:43:48;19.40;98.60
41944;DHT22;27636;52.610;13.244;2023-08-08T08:48:55;19.00;98.00
41944;DHT22;27636;52.610;13.244;2023-08-08T08:54:01;19.40;98.10
41944;DHT22;27636;52.610;13.244;2023-08-08T08:59:05;21.60;94.10
41944;DHT22;27636;52.610;13.244;2023-08-08T09:04:12;22.40;91.20
41944;DHT22;27636;52.610;13.244;2023-08-08T09:09:18;22.20;90.30
41944;DHT22;27636;52.610;13.244;2023-08-08T09:14:26;23.00;87.70
41944;DHT22;27636;52.610;13.244;2023-08-08T09:19:34;22.80;89.40
41944;DHT22;27636;52.610;13.244;2023-08-08T09:24:38;22.20;89.00
41944;DHT22;27636;52.610;13.244;2023-08-08T09:29:42;21.20;91.50
41944;DHT22;27636;52.610;13.244;2023-08-08T09:34:47;20.90;91.50
41944;DHT22;27636;52.610;13.244;2023-08-08T09:39:57;21.20;92.10
41944;DHT22;27636;52.610;13.244;2023-08-08T09:45:01;22.80;89.10
41944;DHT22;27636;52.610;13.244;2023-08-08T09:50:08;22.30;87.10
41944;DHT22;27636;52.610;13.244;2023-08-08T09:55:13;20.90;90.70
41944;DHT22;27636;52.610;13.244;2023-08-08T10:00:18;19.60;93.20
41944;DHT22;27636;52.610;13.244;2023-08-08T10:05:25;20.20;94.20
41944;DHT22;27636;52.610;13.244;2023-08-08T10:10:31;22.80;90.00
41944;DHT22;27636;52.610;13.244;2023-08-08T10:15:36;24.00;84.40
41944;DHT22;27636;52.610;13.244;2023-08-08T10:20:43;24.50;79.20
41944;DHT22;27636;52.610;13.244;2023-08-08T10:25:50;24.60;79.40
41944;DHT22;27636;52.610;13.244;2023-08-08T10:30:57;25.20;76.60
41944;DHT22;27636;52.610;13.244;2023-08-08T10:36:04;25.70;74.20
41944;DHT22;27636;52.610;13.244;2023-08-08T10:41:12;23.10;76.30
41944;DHT22;27636;52.610;13.244;2023-08-08T10:46:23;19.40;95.80
41944;DHT22;27636;52.610;13.244;2023-08-08T10:51:35;18.50;99.90
41944;DHT22;27636;52.610;13.244;2023-08-08T10:56:40;18.90;99.90
41944;DHT22;27636;52.610;13.244;2023-08-08T11:01:48;19.80;99.90
41944;DHT22;27636;52.610;13.244;2023-08-08T11:06:54;20.30;97.50
41944;DHT22;27636;52.610;13.244;2023-08-08T11:11:58;22.10;93.70
41944;DHT22;27636;52.610;13.244;2023-08-08T11:17:03;22.20;89.90
41944;DHT22;27636;52.610;13.244;2023-08-08T11:22:11;21.70;89.50
41944;DHT22;27636;52.610;13.244;2023-08-08T11:27:17;21.20;90.40
41944;DHT22;27636;52.610;13.244;2023-08-08T11:32:25;21.70;90.30
41944;DHT22;27636;52.610;13.244;2023-08-08T11:37:32;23.60;81.40
41944;DHT22;27636;52.610;13.244;2023-08-08T11:42:36;23.60;78.80
41944;DHT22;27636;52.610;13.244;2023-08-08T11:47:41;23.90;74.70
41944;DHT22;27636;52.610;13.244;2023-08-08T11:52:47;22.50;78.50
41944;DHT22;27636;52.610;13.244;2023-08-08T11:57:54;22.40;80.20
41944;DHT22;27636;52.610;13.244;2023-08-08T12:03:01;22.50;82.50
41944;DHT22;27636;52.610;13.244;2023-08-08T12:08:07;23.50;77.70
41944;DHT22;27636;52.610;13.244;2023-08-08T12:13:12;24.60;78.80
41944;DHT22;27636;52.610;13.244;2023-08-08T12:18:16;24.90;71.50
41944;DHT22;27636;52.610;13.244;2023-08-08T12:23:22;24.20;74.40
41944;DHT22;27636;52.610;13.244;2023-08-08T12:28:26;24.40;73.40
41944;DHT22;27636;52.610;13.244;2023-08-08T12:33:30;24.30;72.60
41944;DHT22;27636;52.610;13.244;2023-08-08T12:38:36;24.20;70.60
41944;DHT22;27636;52.610;13.244;2023-08-08T12:43:39;24.80;70.00
41944;DHT22;27636;52.610;13.244;2023-08-08T12:48:43;24.40;74.60
41944;DHT22;27636;52.610;13.244;2023-08-08T12:53:50;22.20;78.70
41944;DHT22;27636;52.610;13.244;2023-08-08T12:58:54;20.00;90.60
41944;DHT22;27636;52.610;13.244;2023-08-08T13:03:58;17.90;99.50
41944;DHT22;27636;52.610;13.244;2023-08-08T13:09:23;18.60;99.90
41944;DHT22;27636;52.610;13.244;2023-08-08T13:14:26;20.90;99.90
41944;DHT22;27636;52.610;13.244;2023-08-08T13:19:30;21.70;96.30
41944;DHT22;27636;52.610;13.244;2023-08-08T13:24:35;22.10;95.20
41944;DHT22;27636;52.610;13.244;2023-08-08T13:29:39;21.40;95.80
41944;DHT22;27636;52.610;13.244;2023-08-08T13:34:42;20.60;97.80
41944;DHT22;27636;52.610;13.244;2023-08-08T13:39:47;19.80;98.20
41944;DHT22;27636;52.610;13.244;2023-08-08T13:44:50;19.70;98.90
41944;DHT22;27636;52.610;13.244;2023-08-08T13:49:56;19.80;99.90
41944;DHT22;27636;52.610;13.244;2023-08-08T13:55:01;19.50;95.80
41944;DHT22;27636;52.610;13.244;2023-08-08T14:00:05;19.90;93.80
41944;DHT22;27636;52.610;13.244;2023-08-08T14:05:10;20.20;91.50
41944;DHT22;27636;52.610;13.244;2023-08-08T14:10:14;21.20;92.70
41944;DHT22;27636;52.610;13.244;2023-08-08T14:15:18;21.80;86.90
41944;DHT22;27636;52.610;13.244;2023-08-08T14:20:22;22.10;84.90
41944;DHT22;27636;52.610;13.244;2023-08-08T14:25:26;22.20;86.70
41944;DHT22;27636;52.610;13.244;2023-08-08T14:30:30;22.60;87.90
41944;DHT22;27636;52.610;13.244;2023-08-08T14:35:33;23.00;83.20
41944;DHT22;27636;52.610;13.244;2023-08-08T14:40:38;22.70;83.10
41944;DHT22;27636;52.610;13.244;2023-08-08T14:45:43;21.40;87.60
41944;DHT22;27636;52.610;13.244;2023-08-08T14:50:47;20.40;90.40
41944;DHT22;27636;52.610;13.244;2023-08-08T14:55:52;19.90;89.50
41944;DHT22;27636;52.610;13.244;2023-08-08T15:00:56;19.60;91.70
41944;DHT22;27636;52.610;13.244;2023-08-08T15:06:01;19.60;92.90
41944;DHT22;27636;52.610;13.244;2023-08-08T15:11:06;19.20;92.30
41944;DHT22;27636;52.610;13.244;2023-08-08T15:16:10;18.90;92.90
41944;DHT22;27636;52.610;13.244;2023-08-08T15:21:14;18.60;94.60
41944;DHT22;27636;52.610;13.244;2023-08-08T15:26:24;17.80;99.90
41944;DHT22;27636;52.610;13.244;2023-08-08T15:31:28;16.10;99.90
41944;DHT22;27636;52.610;13.244;2023-08-08T15:36:31;15.50;99.90
41944;DHT22;27636;52.610;13.244;2023-08-08T15:41:37;15.60;99.90
41944;DHT22;27636;52.610;13.244;2023-08-08T15:46:41;15.20;99.90
41944;DHT22;27636;52.610;13.244;2023-08-08T15:51:45;15.30;99.90
41944;DHT22;27636;52.610;13.244;2023-08-08T15:56:52;15.60;99.90
41944;DHT22;27636;52.610;13.244;2023-08-08T16:01:55;15.80;99.90
41944;DHT22;27636;52.610;13.244;2023-08-08T16:06:59;16.00;99.90
41944;DHT22;27636;52.610;13.244;2023-08-08T16:12:05;16.00;99.90
41944;DHT22;27636;52.610;13.244;2023-08-08T16:17:09;16.40;99.90
41944;DHT22;27636;52.610;13.244;2023-08-08T16:22:13;16.30;99.90
41944;DHT22;27636;52.610;13.244;2023-08-08T16:27:18;15.50;99.90
41944;DHT22;27636;52.610;13.244;2023-08-08T16:32:22;14.90;99.90
41944;DHT22;27636;52.610;13.244;2023-08-08T16:37:26;14.60;99.90
41944;DHT22;27636;52.610;13.244;2023-08-08T16:42:31;14.70;99.90
41944;DHT22;27636;52.610;13.244;2023-08-08T16:47:36;14.70;99.90
41944;DHT22;27636;52.610;13.244;2023-08-08T16:52:40;14.90;99.90
41944;DHT22;27636;52.610;13.244;2023-08-08T16:57:45;15.20;99.90
41944;DHT22;27636;52.610;13.244;2023-08-08T17:02:48;15.40;99.90
41944;DHT22;27636;52.610;13.244;2023-08-08T17:07:52;15.40;99.90
41944;DHT22;27636;52.610;13.244;2023-08-08T17:12:57;15.20;99.90
41944;DHT22;27636;52.610;13.244;2023-08-08T17:18:01;15.10;99.90
41944;DHT22;27636;52.610;13.244;2023-08-08T17:23:05;15.00;99.90
41944;DHT22;27636;52.610;13.244;2023-08-08T17:28:11;14.90;99.90
41944;DHT22;27636;52.610;13.244;2023-08-08T17:33:14;14.80;99.90
41944;DHT22;27636;52.610;13.244;2023-08-08T17:38:18;14.70;99.90
41944;DHT22;27636;52.610;13.244;2023-08-08T17:43:23;14.60;99.90
41944;DHT22;27636;52.610;13.244;2023-08-08T17:48:28;14.80;99.90
41944;DHT22;27636;52.610;13.244;2023-08-08T17:53:31;14.80;99.90
41944;DHT22;27636;52.610;13.244;2023-08-08T17:58:36;14.70;99.90
41944;DHT22;27636;52.610;13.244;2023-08-08T18:03:40;14.70;99.90
41944;DHT22;27636;52.610;13.244;2023-08-08T18:08:43;14.80;99.90
41944;DHT22;27636;52.610;13.244;2023-08-08T18:13:49;14.80;99.90
41944;DHT22;27636;52.610;13.244;2023-08-08T18:18:52;14.90;99.90
41944;DHT22;27636;52.610;13.244;2023-08-08T18:23:57;14.70;99.90
41944;DHT22;27636;52.610;13.244;2023-08-08T18:29:02;14.40;99.90
41944;DHT22;27636;52.610;13.244;2023-08-08T18:34:06;14.20;99.90
41944;DHT22;27636;52.610;13.244;2023-08-08T18:39:11;14.20;99.90
41944;DHT22;27636;52.610;13.244;2023-08-08T18:44:16;14.20;99.90
41944;DHT22;27636;52.610;13.244;2023-08-08T18:49:20;14.30;99.90
41944;DHT22;27636;52.610;13.244;2023-08-08T18:54:23;14.20;99.90
41944;DHT22;27636;52.610;13.244;2023-08-08T18:59:28;14.10;99.90
41944;DHT22;27636;52.610;13.244;2023-08-08T19:04:32;14.10;99.90
41944;DHT22;27636;52.610;13.244;2023-08-08T19:09:35;14.20;99.90
41944;DHT22;27636;52.610;13.244;2023-08-08T19:14:42;14.20;99.90
41944;DHT22;27636;52.610;13.244;2023-08-08T19:19:45;14.10;99.90
41944;DHT22;27636;52.610;13.244;2023-08-08T19:24:49;14.00;99.90
41944;DHT22;27636;52.610;13.244;2023-08-08T19:29:54;13.70;99.90
41944;DHT22;27636;52.610;13.244;2023-08-08T19:34:58;13.50;99.90
41944;DHT22;27636;52.610;13.244;2023-08-08T19:40:02;13.30;99.90
41944;DHT22;27636;52.610;13.244;2023-08-08T19:45:08;13.40;99.90
41944;DHT22;27636;52.610;13.244;2023-08-08T19:50:12;13.50;99.90
41944;DHT22;27636;52.610;13.244;2023-08-08T19:55:15;13.60;99.90
41944;DHT22;27636;52.610;13.244;2023-08-08T20:00:20;13.60;99.90
41944;DHT22;27636;52.610;13.244;2023-08-08T20:05:24;13.70;99.90
41944;DHT22;27636;52.610;13.244;2023-08-08T20:10:28;13.50;99.90
41944;DHT22;27636;52.610;13.244;2023-08-08T20:15:33;13.30;99.90
41944;DHT22;27636;52.610;13.244;2023-08-08T20:20:37;12.90;99.90
41944;DHT22;27636;52.610;13.244;2023-08-08T20:25:42;12.80;99.90
41944;DHT22;27636;52.610;13.244;2023-08-08T20:30:47;12.80;99.90
41944;DHT22;27636;52.610;13.244;2023-08-08T20:35:50;12.90;99.90
41944;DHT22;27636;52.610;13.244;2023-08-08T20:40:54;13.00;99.90
41944;DHT22;27636;52.610;13.244;2023-08-08T20:46:00;13.30;99.90
41944;DHT22;27636;52.610;13.244;2023-08-08T20:51:04;13.40;99.90
41944;DHT22;27636;52.610;13.244;2023-08-08T20:56:07;13.70;99.90
41944;DHT22;27636;52.610;13.244;2023-08-08T21:01:12;13.80;99.90
41944;DHT22;27636;52.610;13.244;2023-08-08T21:06:16;13.60;99.90
41944;DHT22;27636;52.610;13.244;2023-08-08T21:11:20;13.40;99.90
41944;DHT22;27636;52.610;13.244;2023-08-08T21:16:25;13.20;99.90
41944;DHT22;27636;52.610;13.244;2023-08-08T21:21:29;12.90;99.90
41944;DHT22;27636;52.610;13.244;2023-08-08T21:26:33;12.70;99.90
41944;DHT22;27636;52.610;13.244;2023-08-08T21:31:44;12.60;99.90
41944;DHT22;27636;52.610;13.244;2023-08-08T21:36:48;12.50;99.90
41944;DHT22;27636;52.610;13.244;2023-08-08T21:41:52;12.40;99.90
41944;DHT22;27636;52.610;13.244;2023-08-08T21:46:57;12.40;99.90
41944;DHT22;27636;52.610;13.244;2023-08-08T21:52:01;12.40;99.90
41944;DHT22;27636;52.610;13.244;2023-08-08T21:57:05;12.30;99.90
41944;DHT22;27636;52.610;13.244;2023-08-08T22:02:10;12.30;99.90
41944;DHT22;27636;52.610;13.244;2023-08-08T22:07:14;12.40;99.90
41944;DHT22;27636;52.610;13.244;2023-08-08T22:12:17;12.20;99.90
41944;DHT22;27636;52.610;13.244;2023-08-08T22:17:22;12.10;99.90
41944;DHT22;27636;52.610;13.244;2023-08-08T22:22:24;11.80;99.90
41944;DHT22;27636;52.610;13.244;2023-08-08T22:27:28;11.90;99.90
41944;DHT22;27636;52.610;13.244;2023-08-08T22:32:33;12.10;99.90
41944;DHT22;27636;52.610;13.244;2023-08-08T22:37:37;12.10;99.90
41944;DHT22;27636;52.610;13.244;2023-08-08T22:42:40;11.90;99.90
41944;DHT22;27636;52.610;13.244;2023-08-08T22:47:45;11.70;99.90
41944;DHT22;27636;52.610;13.244;2023-08-08T22:52:49;11.60;99.90
41944;DHT22;27636;52.610;13.244;2023-08-08T22:57:53;11.60;99.90
41944;DHT22;27636;52.610;13.244;2023-08-08T23:02:58;11.50;99.90
41944;DHT22;27636;52.610;13.244;2023-08-08T23:08:02;11.50;99.90
41944;DHT22;27636;52.610;13.244;2023-08-08T23:13:06;11.30;99.90
41944;DHT22;27636;52.610;13.244;2023-08-08T23:18:11;11.40;99.90
41944;DHT22;27636;52.610;13.244;2023-08-08T23:23:15;11.30;99.90
41944;DHT22;27636;52.610;13.244;2023-08-08T23:28:18;11.30;99.90
41944;DHT22;27636;52.610;13.244;2023-08-08T23:33:23;11.30;99.90
41944;DHT22;27636;52.610;13.244;2023-08-08T23:38:27;11.30;99.90
41944;DHT22;27636;52.610;13.244;2023-08-08T23:43:31;11.20;99.90
41944;DHT22;27636;52.610;13.244;2023-08-08T23:48:36;11.20;99.90
41944;DHT22;27636;52.610;13.244;2023-08-08T23:53:39;11.10;99.90
41944;DHT22;27636;52.610;13.244;2023-08-08T23:58:43;11.00;99.90
